sensor_id;sensor_type;location;lat;lon;timestamp;temperature;humidity
6333;DHT22;3199;49.102;8.856;2023-05-07T00:01:16;14.60;99.90
6333;DHT22;3199;49.102;8.856;2023-05-07T00:03:42;14.60;99.90
6333;DHT22;3199;49.102;8.856;2023-05-07T00:06:07;14.60;99.90
6333;DHT22;3199;49.102;8.856;2023-05-07T00:08:33;14.50;99.90
6333;DHT22;3199;49.102;8.856;2023-05-07T00:10:58;14.50;99.90
6333;DHT22;3199;49.102;8.856;2023-05-07T00:13:24;14.50;99.90
6333;DHT22;3199;49.102;8.856;2023-05-07T00:15:49;14.50;99.90
6333;DHT22;3199;49.102;8.856;2023-05-07T00:18:15;14.50;99.90
6333;DHT22;3199;49.102;8.856;2023-05-07T00:20:41;14.50;99.90
6333;DHT22;3199;49.102;8.856;2023-05-07T00:23:06;14.50;99.90
6333;DHT22;3199;49.102;8.856;2023-05-07T00:25:32;14.50;99.90
6333;DHT22;3199;49.102;8.856;2023-05-07T00:27:57;14.50;99.90
6333;DHT22;3199;49.102;8.856;2023-05-07T00:30:28;14.50;99.90
6333;DHT22;3199;49.102;8.856;2023-05-07T00:32:53;14.60;99.90
6333;DHT22;3199;49.102;8.856;2023-05-07T00:35:19;14.60;99.90
6333;DHT22;3199;49.102;8.856;2023-05-07T00:37:45;14.60;99.90
6333;DHT22;3199;49.102;8.856;2023-05-07T00:40:10;14.60;99.90
6333;DHT22;3199;49.102;8.856;2023-05-07T00:42:36;14.60;99.90
6333;DHT22;3199;49.102;8.856;2023-05-07T00:45:02;14.70;99.90
6333;DHT22;3199;49.102;8.856;2023-05-07T00:47:28;14.60;99.90
6333;DHT22;3199;49.102;8.856;2023-05-07T00:49:54;14.60;99.90
6333;DHT22;3199;49.102;8.856;2023-05-07T00:52:21;14.60;99.90
6333;DHT22;3199;49.102;8.856;2023-05-07T00:54:48;14.60;99.90
6333;DHT22;3199;49.102;8.856;2023-05-07T00:57:14;14.60;99.90
6333;DHT22;3199;49.102;8.856;2023-05-07T00:59:40;14.60;99.90
6333;DHT22;3199;49.102;8.856;2023-05-07T01:02:06;14.60;99.90
6333;DHT22;3199;49.102;8.856;2023-05-07T01:04:32;14.60;99.90
6333;DHT22;3199;49.102;8.856;2023-05-07T01:06:59;14.60;99.90
6333;DHT22;3199;49.102;8.856;2023-05-07T01:09:27;14.60;99.90
6333;DHT22;3199;49.102;8.856;2023-05-07T01:11:54;14.70;99.90
6333;DHT22;3199;49.102;8.856;2023-05-07T01:14:20;14.70;99.90
6333;DHT22;3199;49.102;8.856;2023-05-07T01:16:47;14.70;99.90
6333;DHT22;3199;49.102;8.856;2023-05-07T01:19:14;14.70;99.90
6333;DHT22;3199;49.102;8.856;2023-05-07T01:21:47;14.70;99.90
6333;DHT22;3199;49.102;8.856;2023-05-07T01:24:13;14.70;99.90
6333;DHT22;3199;49.102;8.856;2023-05-07T01:26:39;14.70;99.90
6333;DHT22;3199;49.102;8.856;2023-05-07T01:29:05;14.70;99.90
6333;DHT22;3199;49.102;8.856;2023-05-07T01:31:33;14.70;99.90
6333;DHT22;3199;49.102;8.856;2023-05-07T01:34:01;14.70;99.90
6333;DHT22;3199;49.102;8.856;2023-05-07T01:36:28;14.70;99.90
6333;DHT22;3199;49.102;8.856;2023-05-07T01:38:54;14.70;99.90
6333;DHT22;3199;49.102;8.856;2023-05-07T01:41:23;14.70;99.90
6333;DHT22;3199;49.102;8.856;2023-05-07T01:43:50;14.60;99.90
6333;DHT22;3199;49.102;8.856;2023-05-07T01:46:17;14.60;99.90
6333;DHT22;3199;49.102;8.856;2023-05-07T01:48:44;14.70;99.90
6333;DHT22;3199;49.102;8.856;2023-05-07T01:51:11;14.60;99.90
6333;DHT22;3199;49.102;8.856;2023-05-07T01:53:38;14.70;99.90
6333;DHT22;3199;49.102;8.856;2023-05-07T01:56:04;14.70;99.90
6333;DHT22;3199;49.102;8.856;2023-05-07T01:58:29;14.70;99.90
6333;DHT22;3199;49.102;8.856;2023-05-07T02:00:55;14.70;99.90
6333;DHT22;3199;49.102;8.856;2023-05-07T02:03:20;14.70;99.90
6333;DHT22;3199;49.102;8.856;2023-05-07T02:05:46;14.70;99.90
6333;DHT22;3199;49.102;8.856;2023-05-07T02:08:11;14.70;99.90
6333;DHT22;3199;49.102;8.856;2023-05-07T02:10:37;14.70;99.90
6333;DHT22;3199;49.102;8.856;2023-05-07T02:13:02;14.70;99.90
6333;DHT22;3199;49.102;8.856;2023-05-07T02:15:28;14.70;99.90
6333;DHT22;3199;49.102;8.856;2023-05-07T02:18:07;14.70;99.90
6333;DHT22;3199;49.102;8.856;2023-05-07T02:20:33;14.70;99.90
6333;DHT22;3199;49.102;8.856;2023-05-07T02:22:58;14.70;99.90
6333;DHT22;3199;49.102;8.856;2023-05-07T02:25:24;14.70;99.90
6333;DHT22;3199;49.102;8.856;2023-05-07T02:27:50;14.70;99.90
6333;DHT22;3199;49.102;8.856;2023-05-07T02:30:15;14.70;99.90
6333;DHT22;3199;49.102;8.856;2023-05-07T02:32:41;14.70;99.90
6333;DHT22;3199;49.102;8.856;2023-05-07T02:35:07;14.60;99.90
6333;DHT22;3199;49.102;8.856;2023-05-07T02:37:32;14.60;99.90
6333;DHT22;3199;49.102;8.856;2023-05-07T02:39:58;14.60;99.90
6333;DHT22;3199;49.102;8.856;2023-05-07T02:42:23;14.60;99.90
6333;DHT22;3199;49.102;8.856;2023-05-07T02:44:49;14.60;99.90
6333;DHT22;3199;49.102;8.856;2023-05-07T02:47:15;14.60;99.90
6333;DHT22;3199;49.102;8.856;2023-05-07T02:49:41;14.60;99.90
6333;DHT22;3199;49.102;8.856;2023-05-07T02:52:07;14.60;99.90
6333;DHT22;3199;49.102;8.856;2023-05-07T02:54:33;14.60;99.90
6333;DHT22;3199;49.102;8.856;2023-05-07T02:56:58;14.60;99.90
6333;DHT22;3199;49.102;8.856;2023-05-07T02:59:26;14.50;99.90
6333;DHT22;3199;49.102;8.856;2023-05-07T03:01:51;14.50;99.90
6333;DHT22;3199;49.102;8.856;2023-05-07T03:04:17;14.50;99.90
6333;DHT22;3199;49.102;8.856;2023-05-07T03:06:42;14.50;99.90
6333;DHT22;3199;49.102;8.856;2023-05-07T03:09:08;14.40;99.90
6333;DHT22;3199;49.102;8.856;2023-05-07T03:11:33;14.40;99.90
6333;DHT22;3199;49.102;8.856;2023-05-07T03:14:01;14.40;99.90
6333;DHT22;3199;49.102;8.856;2023-05-07T03:16:26;14.40;99.90
6333;DHT22;3199;49.102;8.856;2023-05-07T03:18:52;14.30;99.90
6333;DHT22;3199;49.102;8.856;2023-05-07T03:21:17;14.30;99.90
6333;DHT22;3199;49.102;8.856;2023-05-07T03:23:43;14.30;99.90
6333;DHT22;3199;49.102;8.856;2023-05-07T03:26:09;14.30;99.90
6333;DHT22;3199;49.102;8.856;2023-05-07T03:28:34;14.20;99.90
6333;DHT22;3199;49.102;8.856;2023-05-07T03:31:00;14.20;99.90
6333;DHT22;3199;49.102;8.856;2023-05-07T03:33:26;14.10;99.90
6333;DHT22;3199;49.102;8.856;2023-05-07T03:35:52;14.10;99.90
6333;DHT22;3199;49.102;8.856;2023-05-07T03:38:18;14.10;99.90
6333;DHT22;3199;49.102;8.856;2023-05-07T03:40:44;14.00;99.90
6333;DHT22;3199;49.102;8.856;2023-05-07T03:43:09;14.00;99.90
6333;DHT22;3199;49.102;8.856;2023-05-07T03:45:35;14.00;99.90
6333;DHT22;3199;49.102;8.856;2023-05-07T03:48:00;13.90;99.90
6333;DHT22;3199;49.102;8.856;2023-05-07T03:50:26;13.90;99.90
6333;DHT22;3199;49.102;8.856;2023-05-07T03:52:51;13.90;99.90
6333;DHT22;3199;49.102;8.856;2023-05-07T03:55:17;13.90;99.90
6333;DHT22;3199;49.102;8.856;2023-05-07T03:57:43;13.80;99.90
6333;DHT22;3199;49.102;8.856;2023-05-07T04:00:09;13.80;99.90
6333;DHT22;3199;49.102;8.856;2023-05-07T04:02:34;13.80;99.90
6333;DHT22;3199;49.102;8.856;2023-05-07T04:05:00;13.70;99.90
6333;DHT22;3199;49.102;8.856;2023-05-07T04:07:26;13.70;99.90
6333;DHT22;3199;49.102;8.856;2023-05-07T04:09:51;13.70;99.90
6333;DHT22;3199;49.102;8.856;2023-05-07T04:12:17;13.70;99.90
6333;DHT22;3199;49.102;8.856;2023-05-07T04:14:42;13.70;99.90
6333;DHT22;3199;49.102;8.856;2023-05-07T04:17:08;13.70;99.90
6333;DHT22;3199;49.102;8.856;2023-05-07T04:19:35;13.70;99.90
6333;DHT22;3199;49.102;8.856;2023-05-07T04:22:00;13.70;99.90
6333;DHT22;3199;49.102;8.856;2023-05-07T04:24:26;13.70;99.90
6333;DHT22;3199;49.102;8.856;2023-05-07T04:26:52;13.80;99.90
6333;DHT22;3199;49.102;8.856;2023-05-07T04:29:18;13.70;99.90
6333;DHT22;3199;49.102;8.856;2023-05-07T04:31:44;13.80;99.90
6333;DHT22;3199;49.102;8.856;2023-05-07T04:34:10;13.80;99.90
6333;DHT22;3199;49.102;8.856;2023-05-07T04:36:37;13.90;99.90
6333;DHT22;3199;49.102;8.856;2023-05-07T04:39:03;13.90;99.90
6333;DHT22;3199;49.102;8.856;2023-05-07T04:41:29;13.90;99.90
6333;DHT22;3199;49.102;8.856;2023-05-07T04:43:54;14.00;99.90
6333;DHT22;3199;49.102;8.856;2023-05-07T04:46:20;14.00;99.90
6333;DHT22;3199;49.102;8.856;2023-05-07T04:48:46;14.10;99.90
6333;DHT22;3199;49.102;8.856;2023-05-07T04:51:11;14.20;99.90
6333;DHT22;3199;49.102;8.856;2023-05-07T04:53:37;14.30;99.90
6333;DHT22;3199;49.102;8.856;2023-05-07T04:56:03;14.50;99.90
6333;DHT22;3199;49.102;8.856;2023-05-07T04:58:28;14.70;99.90
6333;DHT22;3199;49.102;8.856;2023-05-07T05:00:57;15.00;99.90
6333;DHT22;3199;49.102;8.856;2023-05-07T05:03:22;15.40;99.90
6333;DHT22;3199;49.102;8.856;2023-05-07T05:05:49;15.70;99.90
6333;DHT22;3199;49.102;8.856;2023-05-07T05:08:15;15.70;99.90
6333;DHT22;3199;49.102;8.856;2023-05-07T05:10:40;15.70;99.90
6333;DHT22;3199;49.102;8.856;2023-05-07T05:13:07;15.70;99.90
6333;DHT22;3199;49.102;8.856;2023-05-07T05:15:33;15.60;99.90
6333;DHT22;3199;49.102;8.856;2023-05-07T05:17:59;15.50;99.90
6333;DHT22;3199;49.102;8.856;2023-05-07T05:20:24;15.50;99.90
6333;DHT22;3199;49.102;8.856;2023-05-07T05:22:49;15.50;99.90
6333;DHT22;3199;49.102;8.856;2023-05-07T05:25:15;15.50;99.90
6333;DHT22;3199;49.102;8.856;2023-05-07T05:27:41;15.50;99.90
6333;DHT22;3199;49.102;8.856;2023-05-07T05:30:06;15.50;99.90
6333;DHT22;3199;49.102;8.856;2023-05-07T05:32:32;15.50;99.90
6333;DHT22;3199;49.102;8.856;2023-05-07T05:34:58;15.60;99.90
6333;DHT22;3199;49.102;8.856;2023-05-07T05:37:23;15.60;99.90
6333;DHT22;3199;49.102;8.856;2023-05-07T05:39:49;15.70;99.90
6333;DHT22;3199;49.102;8.856;2023-05-07T05:42:14;15.90;99.90
6333;DHT22;3199;49.102;8.856;2023-05-07T05:44:40;16.20;99.90
6333;DHT22;3199;49.102;8.856;2023-05-07T05:47:05;16.50;99.90
6333;DHT22;3199;49.102;8.856;2023-05-07T05:49:31;17.00;99.90
6333;DHT22;3199;49.102;8.856;2023-05-07T05:51:56;17.40;99.90
6333;DHT22;3199;49.102;8.856;2023-05-07T05:54:22;17.90;99.90
6333;DHT22;3199;49.102;8.856;2023-05-07T05:56:47;18.30;99.90
6333;DHT22;3199;49.102;8.856;2023-05-07T05:59:13;18.90;99.90
6333;DHT22;3199;49.102;8.856;2023-05-07T06:01:39;19.50;99.90
6333;DHT22;3199;49.102;8.856;2023-05-07T06:04:04;20.00;99.50
6333;DHT22;3199;49.102;8.856;2023-05-07T06:06:30;20.40;99.20
6333;DHT22;3199;49.102;8.856;2023-05-07T06:08:57;20.90;98.20
6333;DHT22;3199;49.102;8.856;2023-05-07T06:11:22;21.40;96.90
6333;DHT22;3199;49.102;8.856;2023-05-07T06:13:48;21.70;95.60
6333;DHT22;3199;49.102;8.856;2023-05-07T06:16:14;21.60;94.70
6333;DHT22;3199;49.102;8.856;2023-05-07T06:18:40;21.50;94.60
6333;DHT22;3199;49.102;8.856;2023-05-07T06:21:05;21.10;94.60
6333;DHT22;3199;49.102;8.856;2023-05-07T06:23:31;20.90;94.80
6333;DHT22;3199;49.102;8.856;2023-05-07T06:25:56;20.80;95.10
6333;DHT22;3199;49.102;8.856;2023-05-07T06:28:22;21.10;95.20
6333;DHT22;3199;49.102;8.856;2023-05-07T06:30:47;21.50;94.70
6333;DHT22;3199;49.102;8.856;2023-05-07T06:33:15;21.70;93.90
6333;DHT22;3199;49.102;8.856;2023-05-07T06:35:41;21.90;94.10
6333;DHT22;3199;49.102;8.856;2023-05-07T06:38:06;22.40;93.80
6333;DHT22;3199;49.102;8.856;2023-05-07T06:40:32;23.00;93.30
6333;DHT22;3199;49.102;8.856;2023-05-07T06:42:57;23.80;91.90
6333;DHT22;3199;49.102;8.856;2023-05-07T06:45:23;24.60;90.70
6333;DHT22;3199;49.102;8.856;2023-05-07T06:47:49;25.30;88.80
6333;DHT22;3199;49.102;8.856;2023-05-07T06:50:14;25.50;83.80
6333;DHT22;3199;49.102;8.856;2023-05-07T06:52:42;25.80;82.70
6333;DHT22;3199;49.102;8.856;2023-05-07T06:55:08;26.20;80.80
6333;DHT22;3199;49.102;8.856;2023-05-07T06:57:33;26.80;78.90
6333;DHT22;3199;49.102;8.856;2023-05-07T06:59:59;27.30;77.00
6333;DHT22;3199;49.102;8.856;2023-05-07T07:02:25;27.90;73.50
6333;DHT22;3199;49.102;8.856;2023-05-07T07:04:50;28.40;69.60
6333;DHT22;3199;49.102;8.856;2023-05-07T07:07:16;28.70;67.10
6333;DHT22;3199;49.102;8.856;2023-05-07T07:09:41;29.00;66.30
6333;DHT22;3199;49.102;8.856;2023-05-07T07:12:06;29.30;64.90
6333;DHT22;3199;49.102;8.856;2023-05-07T07:14:32;29.50;63.20
6333;DHT22;3199;49.102;8.856;2023-05-07T07:16:58;29.60;61.10
6333;DHT22;3199;49.102;8.856;2023-05-07T07:19:23;29.50;61.20
6333;DHT22;3199;49.102;8.856;2023-05-07T07:21:49;29.30;60.00
6333;DHT22;3199;49.102;8.856;2023-05-07T07:24:14;29.00;61.40
6333;DHT22;3199;49.102;8.856;2023-05-07T07:26:45;28.80;61.80
6333;DHT22;3199;49.102;8.856;2023-05-07T07:29:11;28.70;61.70
6333;DHT22;3199;49.102;8.856;2023-05-07T07:31:36;28.80;61.70
6333;DHT22;3199;49.102;8.856;2023-05-07T07:34:02;29.00;60.80
6333;DHT22;3199;49.102;8.856;2023-05-07T07:36:27;29.10;60.60
6333;DHT22;3199;49.102;8.856;2023-05-07T07:38:53;29.40;60.80
6333;DHT22;3199;49.102;8.856;2023-05-07T07:41:19;29.50;59.00
6333;DHT22;3199;49.102;8.856;2023-05-07T07:43:44;29.10;59.80
6333;DHT22;3199;49.102;8.856;2023-05-07T07:46:12;28.90;60.60
6333;DHT22;3199;49.102;8.856;2023-05-07T07:48:37;29.20;60.50
6333;DHT22;3199;49.102;8.856;2023-05-07T07:51:03;29.10;59.20
6333;DHT22;3199;49.102;8.856;2023-05-07T07:53:28;28.90;60.30
6333;DHT22;3199;49.102;8.856;2023-05-07T07:55:54;28.70;60.20
6333;DHT22;3199;49.102;8.856;2023-05-07T07:58:20;28.60;61.60
6333;DHT22;3199;49.102;8.856;2023-05-07T08:00:45;28.40;60.20
6333;DHT22;3199;49.102;8.856;2023-05-07T08:03:12;27.90;60.40
6333;DHT22;3199;49.102;8.856;2023-05-07T08:05:38;27.40;60.90
6333;DHT22;3199;49.102;8.856;2023-05-07T08:08:04;27.10;62.50
6333;DHT22;3199;49.102;8.856;2023-05-07T08:10:31;26.90;63.30
6333;DHT22;3199;49.102;8.856;2023-05-07T08:12:59;27.00;64.40
6333;DHT22;3199;49.102;8.856;2023-05-07T08:15:25;27.20;63.10
6333;DHT22;3199;49.102;8.856;2023-05-07T08:17:51;27.40;62.60
6333;DHT22;3199;49.102;8.856;2023-05-07T08:20:16;27.40;61.30
6333;DHT22;3199;49.102;8.856;2023-05-07T08:22:42;27.60;60.80
6333;DHT22;3199;49.102;8.856;2023-05-07T08:25:07;27.50;60.40
6333;DHT22;3199;49.102;8.856;2023-05-07T08:27:33;27.50;61.80
6333;DHT22;3199;49.102;8.856;2023-05-07T08:29:59;27.90;61.80
6333;DHT22;3199;49.102;8.856;2023-05-07T08:32:24;28.30;62.10
6333;DHT22;3199;49.102;8.856;2023-05-07T08:34:50;28.60;60.40
6333;DHT22;3199;49.102;8.856;2023-05-07T08:37:16;28.70;61.70
6333;DHT22;3199;49.102;8.856;2023-05-07T08:39:41;28.90;61.70
6333;DHT22;3199;49.102;8.856;2023-05-07T08:42:09;29.40;61.80
6333;DHT22;3199;49.102;8.856;2023-05-07T08:44:38;29.90;61.80
6333;DHT22;3199;49.102;8.856;2023-05-07T08:47:07;30.40;59.90
6333;DHT22;3199;49.102;8.856;2023-05-07T08:49:33;30.70;58.40
6333;DHT22;3199;49.102;8.856;2023-05-07T08:51:59;30.90;59.30
6333;DHT22;3199;49.102;8.856;2023-05-07T08:54:26;31.10;57.90
6333;DHT22;3199;49.102;8.856;2023-05-07T08:56:52;31.00;58.10
6333;DHT22;3199;49.102;8.856;2023-05-07T08:59:18;30.80;57.60
6333;DHT22;3199;49.102;8.856;2023-05-07T09:01:43;31.00;57.20
6333;DHT22;3199;49.102;8.856;2023-05-07T09:04:10;31.10;56.80
6333;DHT22;3199;49.102;8.856;2023-05-07T09:06:35;31.00;56.50
6333;DHT22;3199;49.102;8.856;2023-05-07T09:09:03;30.90;56.40
6333;DHT22;3199;49.102;8.856;2023-05-07T09:11:30;30.90;58.10
6333;DHT22;3199;49.102;8.856;2023-05-07T09:13:57;30.60;56.80
6333;DHT22;3199;49.102;8.856;2023-05-07T09:16:25;30.30;57.60
6333;DHT22;3199;49.102;8.856;2023-05-07T09:18:52;29.90;57.70
6333;DHT22;3199;49.102;8.856;2023-05-07T09:21:18;29.60;58.30
6333;DHT22;3199;49.102;8.856;2023-05-07T09:23:44;29.40;59.00
6333;DHT22;3199;49.102;8.856;2023-05-07T09:26:09;29.20;59.90
6333;DHT22;3199;49.102;8.856;2023-05-07T09:28:43;29.00;59.40
6333;DHT22;3199;49.102;8.856;2023-05-07T09:31:10;28.90;58.40
6333;DHT22;3199;49.102;8.856;2023-05-07T09:33:37;28.70;59.00
6333;DHT22;3199;49.102;8.856;2023-05-07T09:36:07;28.50;59.50
6333;DHT22;3199;49.102;8.856;2023-05-07T09:38:33;28.10;59.20
6333;DHT22;3199;49.102;8.856;2023-05-07T09:41:07;27.80;60.00
6333;DHT22;3199;49.102;8.856;2023-05-07T09:43:34;27.50;61.00
6333;DHT22;3199;49.102;8.856;2023-05-07T09:46:12;27.30;61.90
6333;DHT22;3199;49.102;8.856;2023-05-07T09:48:39;27.30;63.50
6333;DHT22;3199;49.102;8.856;2023-05-07T09:51:21;27.30;63.50
6333;DHT22;3199;49.102;8.856;2023-05-07T09:53:52;27.50;63.00
6333;DHT22;3199;49.102;8.856;2023-05-07T09:56:18;27.70;62.60
6333;DHT22;3199;49.102;8.856;2023-05-07T09:58:45;27.90;63.50
6333;DHT22;3199;49.102;8.856;2023-05-07T10:01:12;28.40;62.20
6333;DHT22;3199;49.102;8.856;2023-05-07T10:03:40;28.70;62.10
6333;DHT22;3199;49.102;8.856;2023-05-07T10:06:05;29.00;60.80
6333;DHT22;3199;49.102;8.856;2023-05-07T10:08:32;28.80;60.00
6333;DHT22;3199;49.102;8.856;2023-05-07T10:10:59;28.70;60.60
6333;DHT22;3199;49.102;8.856;2023-05-07T10:13:25;28.80;61.50
6333;DHT22;3199;49.102;8.856;2023-05-07T10:15:51;28.90;63.00
6333;DHT22;3199;49.102;8.856;2023-05-07T10:18:16;29.20;62.20
6333;DHT22;3199;49.102;8.856;2023-05-07T10:20:44;29.50;61.40
6333;DHT22;3199;49.102;8.856;2023-05-07T10:23:13;29.80;60.30
6333;DHT22;3199;49.102;8.856;2023-05-07T10:25:39;29.70;58.80
6333;DHT22;3199;49.102;8.856;2023-05-07T10:28:08;29.70;59.10
6333;DHT22;3199;49.102;8.856;2023-05-07T10:30:40;29.60;58.80
6333;DHT22;3199;49.102;8.856;2023-05-07T10:33:11;29.60;59.60
6333;DHT22;3199;49.102;8.856;2023-05-07T10:35:43;29.70;59.10
6333;DHT22;3199;49.102;8.856;2023-05-07T10:38:09;29.90;60.40
6333;DHT22;3199;49.102;8.856;2023-05-07T10:40:35;30.20;58.20
6333;DHT22;3199;49.102;8.856;2023-05-07T10:43:05;30.20;58.00
6333;DHT22;3199;49.102;8.856;2023-05-07T10:45:31;30.20;57.10
6333;DHT22;3199;49.102;8.856;2023-05-07T10:48:15;30.00;57.70
6333;DHT22;3199;49.102;8.856;2023-05-07T10:50:42;30.00;58.10
6333;DHT22;3199;49.102;8.856;2023-05-07T10:53:21;30.00;57.50
6333;DHT22;3199;49.102;8.856;2023-05-07T10:55:50;29.90;56.80
6333;DHT22;3199;49.102;8.856;2023-05-07T11:00:47;29.90;57.30
6333;DHT22;3199;49.102;8.856;2023-05-07T11:03:13;29.90;57.20
6333;DHT22;3199;49.102;8.856;2023-05-07T11:05:40;29.70;57.00
6333;DHT22;3199;49.102;8.856;2023-05-07T11:08:07;29.50;57.90
6333;DHT22;3199;49.102;8.856;2023-05-07T11:10:52;29.30;57.90
6333;DHT22;3199;49.102;8.856;2023-05-07T11:16:21;29.30;58.40
6333;DHT22;3199;49.102;8.856;2023-05-07T11:18:49;29.30;58.00
6333;DHT22;3199;49.102;8.856;2023-05-07T11:21:38;29.40;57.60
6333;DHT22;3199;49.102;8.856;2023-05-07T11:24:06;29.30;58.00
6333;DHT22;3199;49.102;8.856;2023-05-07T11:26:43;29.30;58.80
6333;DHT22;3199;49.102;8.856;2023-05-07T11:29:20;29.00;57.90
6333;DHT22;3199;49.102;8.856;2023-05-07T11:31:50;28.60;59.00
6333;DHT22;3199;49.102;8.856;2023-05-07T11:34:21;28.40;58.60
6333;DHT22;3199;49.102;8.856;2023-05-07T11:36:48;28.20;59.80
6333;DHT22;3199;49.102;8.856;2023-05-07T11:39:27;28.30;60.30
6333;DHT22;3199;49.102;8.856;2023-05-07T11:41:53;28.50;60.00
6333;DHT22;3199;49.102;8.856;2023-05-07T11:44:18;28.70;59.40
6333;DHT22;3199;49.102;8.856;2023-05-07T11:46:44;28.70;59.10
6333;DHT22;3199;49.102;8.856;2023-05-07T11:49:10;28.60;59.50
6333;DHT22;3199;49.102;8.856;2023-05-07T11:51:36;28.60;59.40
6333;DHT22;3199;49.102;8.856;2023-05-07T11:54:04;28.50;58.90
6333;DHT22;3199;49.102;8.856;2023-05-07T11:56:34;28.30;58.40
6333;DHT22;3199;49.102;8.856;2023-05-07T11:59:00;28.10;58.60
6333;DHT22;3199;49.102;8.856;2023-05-07T12:01:26;27.90;59.10
6333;DHT22;3199;49.102;8.856;2023-05-07T12:03:51;27.70;59.90
6333;DHT22;3199;49.102;8.856;2023-05-07T12:06:17;27.50;59.60
6333;DHT22;3199;49.102;8.856;2023-05-07T12:08:43;27.30;59.70
6333;DHT22;3199;49.102;8.856;2023-05-07T12:11:13;27.20;61.20
6333;DHT22;3199;49.102;8.856;2023-05-07T12:13:40;27.20;61.70
6333;DHT22;3199;49.102;8.856;2023-05-07T12:16:06;27.30;62.90
6333;DHT22;3199;49.102;8.856;2023-05-07T12:18:34;27.50;64.00
6333;DHT22;3199;49.102;8.856;2023-05-07T12:20:59;27.50;62.00
6333;DHT22;3199;49.102;8.856;2023-05-07T12:23:25;27.50;61.50
6333;DHT22;3199;49.102;8.856;2023-05-07T12:25:51;27.40;61.70
6333;DHT22;3199;49.102;8.856;2023-05-07T12:28:18;27.30;61.00
6333;DHT22;3199;49.102;8.856;2023-05-07T12:30:45;27.10;60.40
6333;DHT22;3199;49.102;8.856;2023-05-07T12:33:11;26.90;61.20
6333;DHT22;3199;49.102;8.856;2023-05-07T12:35:41;26.80;61.70
6333;DHT22;3199;49.102;8.856;2023-05-07T12:38:11;26.80;61.90
6333;DHT22;3199;49.102;8.856;2023-05-07T12:40:42;26.80;62.00
6333;DHT22;3199;49.102;8.856;2023-05-07T12:43:24;26.80;61.30
6333;DHT22;3199;49.102;8.856;2023-05-07T12:45:51;26.80;60.60
6333;DHT22;3199;49.102;8.856;2023-05-07T12:48:17;26.80;60.70
6333;DHT22;3199;49.102;8.856;2023-05-07T12:50:44;26.90;60.80
6333;DHT22;3199;49.102;8.856;2023-05-07T12:53:11;27.00;60.90
6333;DHT22;3199;49.102;8.856;2023-05-07T12:55:45;27.00;61.00
6333;DHT22;3199;49.102;8.856;2023-05-07T12:58:19;27.00;61.00
6333;DHT22;3199;49.102;8.856;2023-05-07T13:00:47;26.90;60.90
6333;DHT22;3199;49.102;8.856;2023-05-07T13:03:24;26.80;59.70
6333;DHT22;3199;49.102;8.856;2023-05-07T13:05:50;26.80;59.90
6333;DHT22;3199;49.102;8.856;2023-05-07T13:08:36;26.60;59.20
6333;DHT22;3199;49.102;8.856;2023-05-07T13:11:03;26.60;59.60
6333;DHT22;3199;49.102;8.856;2023-05-07T13:13:34;26.50;60.40
6333;DHT22;3199;49.102;8.856;2023-05-07T13:16:00;26.30;61.10
6333;DHT22;3199;49.102;8.856;2023-05-07T13:18:26;26.00;60.70
6333;DHT22;3199;49.102;8.856;2023-05-07T13:20:53;25.90;60.80
6333;DHT22;3199;49.102;8.856;2023-05-07T13:23:19;25.70;61.10
6333;DHT22;3199;49.102;8.856;2023-05-07T13:25:44;25.50;61.90
6333;DHT22;3199;49.102;8.856;2023-05-07T13:28:10;25.40;61.50
6333;DHT22;3199;49.102;8.856;2023-05-07T13:30:36;25.00;60.40
6333;DHT22;3199;49.102;8.856;2023-05-07T13:33:01;24.70;61.10
6333;DHT22;3199;49.102;8.856;2023-05-07T13:35:27;24.20;60.80
6333;DHT22;3199;49.102;8.856;2023-05-07T13:37:53;23.80;62.40
6333;DHT22;3199;49.102;8.856;2023-05-07T13:40:20;23.40;63.90
6333;DHT22;3199;49.102;8.856;2023-05-07T13:42:46;23.00;65.70
6333;DHT22;3199;49.102;8.856;2023-05-07T13:45:11;22.70;67.10
6333;DHT22;3199;49.102;8.856;2023-05-07T13:47:42;22.50;68.70
6333;DHT22;3199;49.102;8.856;2023-05-07T13:50:11;22.20;70.80
6333;DHT22;3199;49.102;8.856;2023-05-07T13:52:40;22.00;74.10
6333;DHT22;3199;49.102;8.856;2023-05-07T13:55:06;21.40;79.70
6333;DHT22;3199;49.102;8.856;2023-05-07T13:57:32;20.90;86.40
6333;DHT22;3199;49.102;8.856;2023-05-07T13:59:57;20.40;91.70
6333;DHT22;3199;49.102;8.856;2023-05-07T14:02:23;20.00;96.40
6333;DHT22;3199;49.102;8.856;2023-05-07T14:04:48;19.70;99.90
6333;DHT22;3199;49.102;8.856;2023-05-07T14:07:14;19.30;99.90
6333;DHT22;3199;49.102;8.856;2023-05-07T14:09:40;18.80;99.90
6333;DHT22;3199;49.102;8.856;2023-05-07T14:12:06;18.40;99.90
6333;DHT22;3199;49.102;8.856;2023-05-07T14:14:31;18.00;99.90
6333;DHT22;3199;49.102;8.856;2023-05-07T14:16:57;17.70;99.90
6333;DHT22;3199;49.102;8.856;2023-05-07T14:19:22;17.40;99.90
6333;DHT22;3199;49.102;8.856;2023-05-07T14:21:48;17.20;99.90
6333;DHT22;3199;49.102;8.856;2023-05-07T14:24:14;17.00;99.90
6333;DHT22;3199;49.102;8.856;2023-05-07T14:26:40;16.80;99.90
6333;DHT22;3199;49.102;8.856;2023-05-07T14:29:05;16.80;99.90
6333;DHT22;3199;49.102;8.856;2023-05-07T14:31:31;16.80;99.90
6333;DHT22;3199;49.102;8.856;2023-05-07T14:33:56;16.80;99.90
6333;DHT22;3199;49.102;8.856;2023-05-07T14:36:23;16.80;99.90
6333;DHT22;3199;49.102;8.856;2023-05-07T14:38:52;16.80;99.90
6333;DHT22;3199;49.102;8.856;2023-05-07T14:41:19;16.60;99.90
6333;DHT22;3199;49.102;8.856;2023-05-07T14:43:46;16.60;99.90
6333;DHT22;3199;49.102;8.856;2023-05-07T14:46:16;16.70;99.90
6333;DHT22;3199;49.102;8.856;2023-05-07T14:48:42;16.70;99.90
6333;DHT22;3199;49.102;8.856;2023-05-07T14:51:08;16.60;99.90
6333;DHT22;3199;49.102;8.856;2023-05-07T14:53:33;16.60;99.90
6333;DHT22;3199;49.102;8.856;2023-05-07T14:55:59;16.60;99.90
6333;DHT22;3199;49.102;8.856;2023-05-07T14:58:25;16.60;99.90
6333;DHT22;3199;49.102;8.856;2023-05-07T15:00:50;16.60;99.90
6333;DHT22;3199;49.102;8.856;2023-05-07T15:03:16;16.60;99.90
6333;DHT22;3199;49.102;8.856;2023-05-07T15:05:42;16.60;99.90
6333;DHT22;3199;49.102;8.856;2023-05-07T15:08:07;16.70;99.90
6333;DHT22;3199;49.102;8.856;2023-05-07T15:10:37;16.80;99.90
6333;DHT22;3199;49.102;8.856;2023-05-07T15:13:07;16.90;99.90
6333;DHT22;3199;49.102;8.856;2023-05-07T15:15:33;17.00;99.90
6333;DHT22;3199;49.102;8.856;2023-05-07T15:17:58;17.00;99.90
6333;DHT22;3199;49.102;8.856;2023-05-07T15:20:25;16.90;99.90
6333;DHT22;3199;49.102;8.856;2023-05-07T15:22:51;17.00;99.90
6333;DHT22;3199;49.102;8.856;2023-05-07T15:25:17;17.00;99.90
6333;DHT22;3199;49.102;8.856;2023-05-07T15:27:42;17.00;99.90
6333;DHT22;3199;49.102;8.856;2023-05-07T15:30:08;17.00;99.90
6333;DHT22;3199;49.102;8.856;2023-05-07T15:32:36;17.00;99.90
6333;DHT22;3199;49.102;8.856;2023-05-07T15:35:02;17.00;99.90
6333;DHT22;3199;49.102;8.856;2023-05-07T15:37:30;17.00;99.90
6333;DHT22;3199;49.102;8.856;2023-05-07T15:39:56;17.00;99.90
6333;DHT22;3199;49.102;8.856;2023-05-07T15:42:21;17.00;99.90
6333;DHT22;3199;49.102;8.856;2023-05-07T15:44:47;17.00;99.90
6333;DHT22;3199;49.102;8.856;2023-05-07T15:47:13;17.10;99.90
6333;DHT22;3199;49.102;8.856;2023-05-07T15:49:42;17.10;99.90
6333;DHT22;3199;49.102;8.856;2023-05-07T15:52:08;17.20;99.90
6333;DHT22;3199;49.102;8.856;2023-05-07T15:54:39;17.20;99.90
6333;DHT22;3199;49.102;8.856;2023-05-07T15:57:05;17.30;99.90
6333;DHT22;3199;49.102;8.856;2023-05-07T15:59:31;17.40;99.90
6333;DHT22;3199;49.102;8.856;2023-05-07T16:01:57;17.40;99.90
6333;DHT22;3199;49.102;8.856;2023-05-07T16:04:23;17.40;99.90